Time;durP1;ratioP1;P1;durP2;ratioP2;P2;SDS_P1;SDS_P2;PMS_P1;PMS_P2;Temp;Humidity;BMP_temperature;BMP_pressure;BME280_temperature;BME280_humidity;BME280_pressure;Samples;Min_cycle;Max_cycle;Signal;HPM_P1;HPM_P2
2022/03/18 00:01:52;;;;;;;16.20;7.20;;;;;;;;;;5060370;28;20429;-83
2022/03/18 00:04:20;;;;;;;14.18;6.68;;;;;;;;;;5063519;28;20457;-83
2022/03/18 00:06:46;;;;;;;16.42;7.70;;;;;;;;;;5062433;28;20429;-85
2022/03/18 00:09:13;;;;;;;13.45;7.70;;;;;;;;;;5061849;28;20423;-84
2022/03/18 00:11:39;;;;;;;17.20;8.70;;;;;;;;;;5060459;28;21000;-83
2022/03/18 00:14:05;;;;;;;16.52;8.57;;;;;;;;;;5063634;28;20411;-82
2022/03/18 00:16:32;;;;;;;18.25;8.48;;;;;;;;;;5061832;28;20425;-83
2022/03/18 00:19:00;;;;;;;17.88;7.57;;;;;;;;;;5054969;28;20506;-84
2022/03/18 00:21:28;;;;;;;16.60;8.07;;;;;;;;;;5062503;28;20416;-82
2022/03/18 00:23:54;;;;;;;17.80;7.88;;;;;;;;;;5062539;28;20841;-83
2022/03/18 00:26:20;;;;;;;14.90;7.72;;;;;;;;;;5061647;28;20787;-85
2022/03/18 00:28:47;;;;;;;14.02;8.00;;;;;;;;;;5059317;28;20423;-84
2022/03/18 00:31:13;;;;;;;15.60;7.60;;;;;;;;;;5062178;28;20423;-82
2022/03/18 00:33:39;;;;;;;10.80;7.13;;;;;;;;;;5060413;28;20425;-83
2022/03/18 00:36:06;;;;;;;15.90;8.33;;;;;;;;;;5062859;28;20469;-85
2022/03/18 00:38:34;;;;;;;12.75;7.30;;;;;;;;;;5061123;28;20440;-86
2022/03/18 00:41:00;;;;;;;11.27;6.70;;;;;;;;;;5062673;28;20469;-84
2022/03/18 00:43:26;;;;;;;15.23;6.87;;;;;;;;;;5065172;28;20484;-81
2022/03/18 00:45:52;;;;;;;16.00;7.85;;;;;;;;;;5063501;28;20419;-85
2022/03/18 00:53:48;;;;;;;16.93;8.80;;;;;;;;;;5062496;28;20894;-85
2022/03/18 00:56:14;;;;;;;14.07;7.55;;;;;;;;;;5062086;28;20425;-83
2022/03/18 00:58:42;;;;;;;12.98;8.00;;;;;;;;;;5059165;28;20413;-84
2022/03/18 01:01:08;;;;;;;14.77;7.40;;;;;;;;;;5055850;28;20433;-84
2022/03/18 01:03:35;;;;;;;15.95;8.73;;;;;;;;;;5060274;28;22425;-83
2022/03/18 01:06:01;;;;;;;12.80;7.85;;;;;;;;;;5058855;28;20412;-83
2022/03/18 01:08:27;;;;;;;16.80;9.05;;;;;;;;;;5059287;28;20416;-83
2022/03/18 01:10:55;;;;;;;20.25;10.40;;;;;;;;;;5061079;28;20481;-86
2022/03/18 01:13:22;;;;;;;21.38;10.05;;;;;;;;;;5063008;28;20458;-84
2022/03/18 01:15:48;;;;;;;19.90;10.00;;;;;;;;;;5061299;28;20457;-84
2022/03/18 01:18:14;;;;;;;19.05;9.25;;;;;;;;;;5060351;28;20420;-87
2022/03/18 01:20:41;;;;;;;18.20;9.10;;;;;;;;;;5061247;28;20411;-82
2022/03/18 01:23:07;;;;;;;15.43;9.52;;;;;;;;;;5060141;28;20995;-82
2022/03/18 01:25:33;;;;;;;12.13;8.23;;;;;;;;;;5061945;28;20411;-85
2022/03/18 01:28:01;;;;;;;16.67;8.40;;;;;;;;;;5061318;28;20836;-83
2022/03/18 01:30:28;;;;;;;13.20;7.30;;;;;;;;;;5062387;28;20439;-85
2022/03/18 01:32:55;;;;;;;15.87;7.63;;;;;;;;;;5064307;28;20456;-82
2022/03/18 01:35:21;;;;;;;21.73;8.82;;;;;;;;;;5080646;22;20517;-79
2022/03/18 01:37:47;;;;;;;14.38;8.82;;;;;;;;;;5056991;28;20925;-78
2022/03/18 01:40:13;;;;;;;14.00;8.25;;;;;;;;;;5055485;28;20505;-78
2022/03/18 01:42:40;;;;;;;17.50;9.00;;;;;;;;;;5060156;28;20413;-78
2022/03/18 01:45:08;;;;;;;17.27;8.18;;;;;;;;;;5058099;28;20429;-80
2022/03/18 01:47:34;;;;;;;15.80;8.10;;;;;;;;;;5058739;28;20468;-78
2022/03/18 01:50:01;;;;;;;14.13;8.27;;;;;;;;;;5055966;28;20950;-78
2022/03/18 01:52:27;;;;;;;19.75;9.02;;;;;;;;;;5055812;28;20416;-78
2022/03/18 01:54:54;;;;;;;15.07;9.68;;;;;;;;;;5058061;28;20413;-79
2022/03/18 01:57:22;;;;;;;11.70;8.27;;;;;;;;;;5057423;28;20416;-79
2022/03/18 01:59:48;;;;;;;16.95;8.90;;;;;;;;;;5057709;28;20424;-78
2022/03/18 02:02:16;;;;;;;15.35;8.50;;;;;;;;;;5056173;28;20473;-78
2022/03/18 02:04:43;;;;;;;14.85;9.15;;;;;;;;;;5058271;28;20540;-77
2022/03/18 02:07:09;;;;;;;15.80;9.13;;;;;;;;;;5057044;28;20431;-78
2022/03/18 02:09:36;;;;;;;13.50;8.40;;;;;;;;;;5056424;28;20439;-78
2022/03/18 02:12:03;;;;;;;13.30;7.95;;;;;;;;;;5054857;28;20427;-78
2022/03/18 02:14:30;;;;;;;10.27;8.10;;;;;;;;;;5057806;28;20433;-78
2022/03/18 02:16:56;;;;;;;18.10;9.38;;;;;;;;;;5057119;28;20477;-79
2022/03/18 02:19:24;;;;;;;18.77;8.98;;;;;;;;;;5057371;28;20417;-78
2022/03/18 02:21:53;;;;;;;16.10;8.57;;;;;;;;;;5055662;28;20467;-78
2022/03/18 02:24:21;;;;;;;16.60;8.32;;;;;;;;;;5056336;28;20481;-78
2022/03/18 02:26:47;;;;;;;16.47;8.50;;;;;;;;;;5054637;28;20509;-78
2022/03/18 02:29:14;;;;;;;17.23;8.60;;;;;;;;;;5056677;28;20451;-78
2022/03/18 02:31:40;;;;;;;13.90;8.48;;;;;;;;;;5057324;28;20421;-78
2022/03/18 02:34:06;;;;;;;15.25;8.45;;;;;;;;;;5059263;28;20497;-79
2022/03/18 02:36:32;;;;;;;15.23;8.82;;;;;;;;;;5057139;28;20995;-79
2022/03/18 02:38:59;;;;;;;17.42;8.90;;;;;;;;;;5057114;28;20905;-78
2022/03/18 02:41:26;;;;;;;15.30;9.15;;;;;;;;;;5056185;28;20417;-78
2022/03/18 02:43:52;;;;;;;16.17;8.52;;;;;;;;;;5058368;28;20428;-79
2022/03/18 02:46:20;;;;;;;15.05;8.82;;;;;;;;;;5056570;28;20461;-78
2022/03/18 02:48:46;;;;;;;15.90;8.88;;;;;;;;;;5056719;28;20499;-79
2022/03/18 02:51:13;;;;;;;17.48;8.95;;;;;;;;;;5057070;28;20420;-78
2022/03/18 02:53:39;;;;;;;17.33;9.18;;;;;;;;;;5056612;28;20425;-78
2022/03/18 02:56:06;;;;;;;17.02;9.50;;;;;;;;;;5055410;28;20462;-79
2022/03/18 02:58:34;;;;;;;13.23;7.47;;;;;;;;;;5055565;28;20433;-79
2022/03/18 03:01:01;;;;;;;15.67;8.20;;;;;;;;;;5056431;28;20473;-79
2022/03/18 03:03:27;;;;;;;19.35;9.00;;;;;;;;;;5055672;28;20475;-79
2022/03/18 03:08:37;;;;;;;11.32;8.23;;;;;;;;;;5053951;28;20399;-79
2022/03/18 03:11:03;;;;;;;17.50;8.45;;;;;;;;;;5055524;28;20428;-79
2022/03/18 03:13:30;;;;;;;13.32;8.40;;;;;;;;;;5056599;28;20432;-78
2022/03/18 03:15:57;;;;;;;13.20;8.38;;;;;;;;;;5056187;28;20481;-79
2022/03/18 03:18:23;;;;;;;10.57;8.13;;;;;;;;;;5056929;28;20902;-78
2022/03/18 03:20:50;;;;;;;14.50;8.07;;;;;;;;;;5058081;28;20433;-79
2022/03/18 03:23:16;;;;;;;13.65;8.50;;;;;;;;;;5056034;28;20425;-78
2022/03/18 03:25:42;;;;;;;13.98;8.25;;;;;;;;;;5055657;28;20413;-77
2022/03/18 03:28:09;;;;;;;18.23;8.95;;;;;;;;;;5055659;28;20484;-79
2022/03/18 03:30:35;;;;;;;14.95;8.45;;;;;;;;;;5059949;28;20477;-78
2022/03/18 03:33:03;;;;;;;13.73;7.90;;;;;;;;;;5062243;28;20457;-78
2022/03/18 03:35:29;;;;;;;13.32;8.70;;;;;;;;;;5060371;28;20812;-78
2022/03/18 03:37:55;;;;;;;14.30;8.60;;;;;;;;;;5058036;28;20922;-78
2022/03/18 03:40:21;;;;;;;16.75;8.45;;;;;;;;;;5058700;28;20429;-78
2022/03/18 03:42:48;;;;;;;13.02;9.00;;;;;;;;;;5061601;28;21364;-78
2022/03/18 03:45:14;;;;;;;13.73;8.48;;;;;;;;;;5058786;28;20427;-79
2022/03/18 03:47:41;;;;;;;12.98;8.30;;;;;;;;;;5062558;28;20477;-78
2022/03/18 03:50:10;;;;;;;13.88;8.63;;;;;;;;;;5060480;28;20415;-79
2022/03/18 03:52:36;;;;;;;16.13;8.80;;;;;;;;;;5060174;28;20429;-78
2022/03/18 03:55:03;;;;;;;16.40;8.80;;;;;;;;;;5059540;28;20482;-79
2022/03/18 03:57:29;;;;;;;19.97;9.90;;;;;;;;;;5060731;28;20415;-78
2022/03/18 03:59:55;;;;;;;12.77;8.25;;;;;;;;;;5058651;28;20431;-77
2022/03/18 04:02:21;;;;;;;14.73;8.75;;;;;;;;;;5060168;28;20423;-79
2022/03/18 04:04:48;;;;;;;14.20;8.63;;;;;;;;;;5058348;28;20429;-78
2022/03/18 04:07:16;;;;;;;12.77;8.00;;;;;;;;;;5060555;28;20483;-79
2022/03/18 04:09:42;;;;;;;13.90;8.32;;;;;;;;;;5058805;28;20537;-76
2022/03/18 04:12:09;;;;;;;13.50;8.20;;;;;;;;;;5061097;28;20454;-79
2022/03/18 04:14:35;;;;;;;17.60;9.50;;;;;;;;;;5059219;28;20941;-79
2022/03/18 04:17:02;;;;;;;14.50;8.75;;;;;;;;;;5060976;28;20490;-78
2022/03/18 04:19:28;;;;;;;13.00;8.40;;;;;;;;;;5059167;28;20468;-80
2022/03/18 04:21:55;;;;;;;12.15;7.80;;;;;;;;;;5060417;28;20412;-79
2022/03/18 04:24:22;;;;;;;16.95;9.73;;;;;;;;;;5057466;28;20780;-80
2022/03/18 04:26:48;;;;;;;12.25;9.50;;;;;;;;;;5061179;28;20428;-79
2022/03/18 04:29:15;;;;;;;13.10;8.60;;;;;;;;;;5060686;28;20435;-79
2022/03/18 04:31:42;;;;;;;16.85;8.90;;;;;;;;;;5058494;28;20519;-78
2022/03/18 04:34:08;;;;;;;15.57;9.23;;;;;;;;;;5059007;28;20455;-79
2022/03/18 04:36:34;;;;;;;11.70;9.50;;;;;;;;;;5059797;28;20496;-78
2022/03/18 04:39:01;;;;;;;16.15;8.45;;;;;;;;;;5059524;28;20487;-79
2022/03/18 04:41:29;;;;;;;14.57;8.80;;;;;;;;;;5058745;28;20469;-79
2022/03/18 04:43:55;;;;;;;12.98;8.05;;;;;;;;;;5060634;28;20924;-78
2022/03/18 04:46:21;;;;;;;13.20;9.07;;;;;;;;;;5060714;28;20417;-79
2022/03/18 04:48:47;;;;;;;14.13;8.90;;;;;;;;;;5057905;28;20911;-78
2022/03/18 04:51:14;;;;;;;12.85;8.85;;;;;;;;;;5059415;28;20469;-78
2022/03/18 04:53:42;;;;;;;15.70;9.40;;;;;;;;;;5060742;28;20427;-79
2022/03/18 04:57:15;;;;;;;16.58;9.27;;;;;;;;;;5058479;28;20481;-79
2022/03/18 04:58:56;;;;;;;15.02;9.45;;;;;;;;;;5058102;28;20409;-78
2022/03/18 05:01:22;;;;;;;13.70;8.45;;;;;;;;;;5060562;28;20431;-78
2022/03/18 05:03:49;;;;;;;14.63;9.30;;;;;;;;;;5058287;28;20425;-79
2022/03/18 05:06:15;;;;;;;16.48;9.98;;;;;;;;;;5059736;28;21010;-78
2022/03/18 05:08:41;;;;;;;14.60;9.67;;;;;;;;;;5055753;28;20537;-78
2022/03/18 05:11:08;;;;;;;13.18;9.00;;;;;;;;;;5060319;28;20433;-80
2022/03/18 05:13:35;;;;;;;11.48;8.25;;;;;;;;;;5060568;28;20524;-78
2022/03/18 05:16:02;;;;;;;19.17;9.82;;;;;;;;;;5058372;28;20427;-78
2022/03/18 05:18:29;;;;;;;15.77;9.55;;;;;;;;;;5056030;28;20479;-78
2022/03/18 05:20:55;;;;;;;16.15;10.20;;;;;;;;;;5059176;28;20421;-78
2022/03/18 05:23:21;;;;;;;18.52;9.77;;;;;;;;;;5058998;28;20472;-79
2022/03/18 05:25:47;;;;;;;19.03;9.57;;;;;;;;;;5057984;28;20790;-78
2022/03/18 05:28:13;;;;;;;17.90;9.60;;;;;;;;;;5058116;28;20431;-79
2022/03/18 05:30:40;;;;;;;15.25;10.27;;;;;;;;;;5053632;28;20435;-78
2022/03/18 05:33:08;;;;;;;14.70;9.63;;;;;;;;;;5054338;28;20802;-79
2022/03/18 05:35:34;;;;;;;16.88;10.15;;;;;;;;;;5054080;28;20848;-78
2022/03/18 05:38:00;;;;;;;18.05;9.85;;;;;;;;;;5060359;28;20477;-79
2022/03/18 05:40:27;;;;;;;17.58;10.95;;;;;;;;;;5057728;28;20399;-78
2022/03/18 05:42:53;;;;;;;14.95;11.27;;;;;;;;;;5059905;28;20441;-78
2022/03/18 05:45:19;;;;;;;18.75;11.05;;;;;;;;;;5058441;28;20443;-79
2022/03/18 05:47:45;;;;;;;16.77;10.13;;;;;;;;;;5059450;28;20481;-79
2022/03/18 05:50:15;;;;;;;20.77;11.73;;;;;;;;;;5056830;28;20446;-79
2022/03/18 05:52:42;;;;;;;15.00;10.43;;;;;;;;;;5059672;28;20509;-79
2022/03/18 05:55:09;;;;;;;18.35;11.75;;;;;;;;;;5059227;28;20455;-78
2022/03/18 05:57:34;;;;;;;17.55;11.98;;;;;;;;;;5056086;28;20433;-79
2022/03/18 06:00:01;;;;;;;26.07;16.53;;;;;;;;;;5054908;28;20424;-79
2022/03/18 06:02:27;;;;;;;20.65;12.20;;;;;;;;;;5051639;28;20583;-79
2022/03/18 06:04:53;;;;;;;19.02;12.30;;;;;;;;;;5059716;28;20432;-79
2022/03/18 06:07:21;;;;;;;19.30;12.27;;;;;;;;;;5058197;28;20425;-79
2022/03/18 06:12:31;;;;;;;22.13;13.30;;;;;;;;;;5059584;28;20535;-79
2022/03/18 06:14:57;;;;;;;16.73;12.88;;;;;;;;;;5057873;28;20445;-79
2022/03/18 06:17:24;;;;;;;20.40;12.75;;;;;;;;;;5060106;28;20425;-79
2022/03/18 06:19:50;;;;;;;22.75;14.18;;;;;;;;;;5056857;28;20970;-80
2022/03/18 06:22:16;;;;;;;19.48;13.55;;;;;;;;;;5058328;28;20549;-80
2022/03/18 06:24:44;;;;;;;16.45;12.45;;;;;;;;;;5059500;28;20420;-77
2022/03/18 06:27:11;;;;;;;16.58;12.30;;;;;;;;;;5059380;28;20429;-81
2022/03/18 06:29:39;;;;;;;24.35;14.52;;;;;;;;;;5056916;28;20493;-80
2022/03/18 06:32:06;;;;;;;20.17;13.50;;;;;;;;;;5052348;28;20927;-79
2022/03/18 06:34:32;;;;;;;22.15;11.90;;;;;;;;;;5058209;28;20435;-79
2022/03/18 06:37:00;;;;;;;17.20;12.25;;;;;;;;;;5056785;28;20423;-78
2022/03/18 06:39:26;;;;;;;20.25;12.13;;;;;;;;;;5057448;28;20427;-80
2022/03/18 06:41:54;;;;;;;20.05;12.70;;;;;;;;;;5056200;28;20431;-79
2022/03/18 06:44:21;;;;;;;19.67;12.13;;;;;;;;;;5056569;28;20568;-79
2022/03/18 06:46:47;;;;;;;16.80;11.70;;;;;;;;;;5053536;28;20439;-78
2022/03/18 06:49:13;;;;;;;15.98;11.52;;;;;;;;;;5054960;28;20427;-79
2022/03/18 06:51:40;;;;;;;19.23;12.80;;;;;;;;;;5057755;28;20515;-79
2022/03/18 06:54:06;;;;;;;20.10;12.73;;;;;;;;;;5057703;28;20927;-79
2022/03/18 06:56:33;;;;;;;19.85;12.50;;;;;;;;;;5055571;28;20428;-80
2022/03/18 06:59:00;;;;;;;18.20;12.10;;;;;;;;;;5057083;28;20801;-78
2022/03/18 07:01:27;;;;;;;21.23;12.38;;;;;;;;;;5053619;28;20431;-80
2022/03/18 07:03:53;;;;;;;22.70;13.35;;;;;;;;;;5054995;28;20425;-81
2022/03/18 07:06:20;;;;;;;21.13;13.30;;;;;;;;;;5059115;28;20874;-79
2022/03/18 07:08:46;;;;;;;20.10;13.25;;;;;;;;;;5060344;28;20411;-77
2022/03/18 07:11:13;;;;;;;17.80;12.98;;;;;;;;;;5063200;28;20787;-79
2022/03/18 07:13:39;;;;;;;20.40;12.88;;;;;;;;;;5060018;28;21243;-79
2022/03/18 07:18:52;;;;;;;22.17;13.23;;;;;;;;;;5059085;28;21006;-78
2022/03/18 07:21:18;;;;;;;24.57;13.63;;;;;;;;;;5062324;28;20413;-79
2022/03/18 07:23:45;;;;;;;22.02;12.57;;;;;;;;;;5061711;28;20758;-79
2022/03/18 07:26:12;;;;;;;20.13;13.60;;;;;;;;;;5060972;28;20414;-79
2022/03/18 07:28:38;;;;;;;22.13;12.50;;;;;;;;;;5055171;28;20429;-79
2022/03/18 07:31:05;;;;;;;19.73;13.15;;;;;;;;;;5059888;28;20522;-81
2022/03/18 07:33:33;;;;;;;19.00;12.60;;;;;;;;;;5060769;28;20464;-80
2022/03/18 07:36:00;;;;;;;18.98;13.00;;;;;;;;;;5149779;22;20456;-79
2022/03/18 07:38:27;;;;;;;18.20;12.00;;;;;;;;;;5018738;28;20430;-77
2022/03/18 07:40:53;;;;;;;23.08;11.50;;;;;;;;;;5023156;28;20462;-78
2022/03/18 07:43:19;;;;;;;18.30;11.75;;;;;;;;;;5023636;28;20947;-79
2022/03/18 07:45:45;;;;;;;18.42;11.68;;;;;;;;;;5023092;28;20425;-79
2022/03/18 07:48:12;;;;;;;22.13;12.02;;;;;;;;;;5024884;28;20434;-80
2022/03/18 07:50:40;;;;;;;16.33;11.17;;;;;;;;;;5024662;28;20847;-81
2022/03/18 07:53:07;;;;;;;20.27;10.82;;;;;;;;;;5023009;28;20498;-79
2022/03/18 07:55:34;;;;;;;16.05;10.10;;;;;;;;;;5023068;28;20439;-78
2022/03/18 07:58:01;;;;;;;19.40;9.93;;;;;;;;;;5021821;28;20430;-80
2022/03/18 08:00:27;;;;;;;22.88;9.13;;;;;;;;;;5022793;28;20407;-78
2022/03/18 08:02:54;;;;;;;15.75;8.88;;;;;;;;;;5021749;28;20478;-78
2022/03/18 08:05:21;;;;;;;16.15;8.50;;;;;;;;;;5023345;28;20435;-81
2022/03/18 08:07:48;;;;;;;16.95;8.80;;;;;;;;;;5023461;28;20443;-78
2022/03/18 08:10:17;;;;;;;19.40;9.60;;;;;;;;;;5020750;28;20442;-79
2022/03/18 08:12:44;;;;;;;17.63;9.30;;;;;;;;;;5022639;28;20423;-77
2022/03/18 08:15:12;;;;;;;21.10;10.02;;;;;;;;;;5019813;28;20426;-79
2022/03/18 08:17:38;;;;;;;21.35;9.70;;;;;;;;;;5023152;28;20432;-78
2022/03/18 08:20:05;;;;;;;17.88;8.93;;;;;;;;;;5021688;28;20412;-78
2022/03/18 08:22:31;;;;;;;15.27;9.68;;;;;;;;;;5021166;28;20843;-77
2022/03/18 08:24:59;;;;;;;16.95;9.30;;;;;;;;;;5021938;28;20802;-77
2022/03/18 08:27:25;;;;;;;16.52;8.48;;;;;;;;;;5018406;28;20425;-79
2022/03/18 08:29:54;;;;;;;17.60;9.05;;;;;;;;;;5021651;28;20457;-80
2022/03/18 08:32:20;;;;;;;15.90;8.10;;;;;;;;;;5018532;28;20432;-81
2022/03/18 08:34:46;;;;;;;17.60;8.55;;;;;;;;;;5021473;28;20454;-80
2022/03/18 08:37:12;;;;;;;18.50;9.50;;;;;;;;;;5022180;28;20419;-81
2022/03/18 08:39:39;;;;;;;17.52;8.90;;;;;;;;;;5019138;28;20426;-80
2022/03/18 08:42:07;;;;;;;19.40;8.60;;;;;;;;;;5020037;28;20429;-80
2022/03/18 08:44:34;;;;;;;14.98;8.60;;;;;;;;;;5020371;28;20434;-80
2022/03/18 08:47:00;;;;;;;17.30;8.45;;;;;;;;;;5022005;28;20481;-80
2022/03/18 08:49:26;;;;;;;16.33;8.50;;;;;;;;;;5021364;28;20832;-80
2022/03/18 08:51:52;;;;;;;15.48;8.45;;;;;;;;;;5019109;28;20435;-80
2022/03/18 08:54:21;;;;;;;14.60;8.40;;;;;;;;;;5021165;28;20431;-80
2022/03/18 08:56:48;;;;;;;13.43;7.80;;;;;;;;;;5021180;28;20422;-80
2022/03/18 08:59:15;;;;;;;19.27;9.18;;;;;;;;;;5021162;28;20814;-80
2022/03/18 09:01:42;;;;;;;14.35;8.15;;;;;;;;;;5015660;28;20456;-81
2022/03/18 09:04:09;;;;;;;15.88;8.60;;;;;;;;;;5021547;28;20486;-80
2022/03/18 09:06:35;;;;;;;16.92;8.02;;;;;;;;;;5019671;28;20570;-80
2022/03/18 09:09:03;;;;;;;14.23;8.77;;;;;;;;;;5019322;28;20426;-80
2022/03/18 09:11:30;;;;;;;16.73;8.98;;;;;;;;;;5020312;28;20423;-80
2022/03/18 09:13:56;;;;;;;16.52;9.02;;;;;;;;;;5019253;28;20463;-81
2022/03/18 09:16:24;;;;;;;15.85;8.80;;;;;;;;;;5018257;28;20423;-80
2022/03/18 09:18:50;;;;;;;13.40;8.90;;;;;;;;;;5020877;28;20438;-81
2022/03/18 09:21:16;;;;;;;15.98;9.30;;;;;;;;;;5021156;28;20407;-80
2022/03/18 09:23:42;;;;;;;18.07;9.70;;;;;;;;;;5020113;28;20420;-78
2022/03/18 09:26:08;;;;;;;17.33;9.38;;;;;;;;;;5020312;28;20487;-80
2022/03/18 09:28:35;;;;;;;15.77;9.57;;;;;;;;;;5017116;28;20453;-81
2022/03/18 09:31:01;;;;;;;17.17;9.10;;;;;;;;;;5019654;28;20507;-81
2022/03/18 09:33:29;;;;;;;13.00;9.20;;;;;;;;;;5022443;28;20483;-80
2022/03/18 09:35:55;;;;;;;22.30;10.98;;;;;;;;;;5017297;28;21132;-80
2022/03/18 09:38:21;;;;;;;17.17;10.50;;;;;;;;;;5019762;28;20423;-82
2022/03/18 09:40:48;;;;;;;18.48;9.98;;;;;;;;;;5017954;28;20808;-80
2022/03/18 09:43:14;;;;;;;21.25;11.07;;;;;;;;;;5019679;28;20426;-80
2022/03/18 09:45:41;;;;;;;16.70;10.65;;;;;;;;;;5023545;28;20423;-81
2022/03/18 09:48:09;;;;;;;19.33;10.90;;;;;;;;;;5020038;28;20486;-80
2022/03/18 09:50:37;;;;;;;20.63;11.43;;;;;;;;;;5018881;28;20443;-81
2022/03/18 09:53:03;;;;;;;19.88;12.75;;;;;;;;;;5021054;28;20423;-80
2022/03/18 09:55:31;;;;;;;25.43;13.00;;;;;;;;;;5023310;28;20439;-80
2022/03/18 09:57:57;;;;;;;19.15;13.07;;;;;;;;;;5022606;28;20987;-81
2022/03/18 10:00:23;;;;;;;19.40;12.98;;;;;;;;;;5022703;28;22027;-81
2022/03/18 10:03:06;;;;;;;23.77;13.90;;;;;;;;;;5021649;28;20427;-80
2022/03/18 10:05:32;;;;;;;23.43;13.90;;;;;;;;;;5023867;28;20427;-79
2022/03/18 10:08:00;;;;;;;24.27;13.02;;;;;;;;;;5023407;28;21162;-81
2022/03/18 10:10:27;;;;;;;18.42;13.30;;;;;;;;;;5018030;28;20443;-80
2022/03/18 10:12:56;;;;;;;22.02;13.75;;;;;;;;;;5021668;28;20499;-80
2022/03/18 10:15:23;;;;;;;24.67;12.23;;;;;;;;;;5022251;28;20433;-80
2022/03/18 10:17:50;;;;;;;21.77;12.63;;;;;;;;;;5019857;28;20438;-80
2022/03/18 10:20:26;;;;;;;19.60;12.80;;;;;;;;;;5020003;28;21262;-82
2022/03/18 10:22:53;;;;;;;27.00;12.90;;;;;;;;;;5019910;28;20481;-80
2022/03/18 10:25:37;;;;;;;23.85;13.05;;;;;;;;;;5017956;28;20483;-79
2022/03/18 10:28:04;;;;;;;27.30;12.50;;;;;;;;;;5019455;28;20427;-78
2022/03/18 10:30:31;;;;;;;19.30;12.90;;;;;;;;;;5021395;28;20431;-80
2022/03/18 10:32:57;;;;;;;21.87;12.50;;;;;;;;;;5021216;28;20426;-80
2022/03/18 10:38:14;;;;;;;22.42;12.50;;;;;;;;;;5020319;28;20430;-79
2022/03/18 10:40:42;;;;;;;20.45;12.65;;;;;;;;;;5020757;28;20433;-79
2022/03/18 10:43:08;;;;;;;29.48;12.05;;;;;;;;;;5018759;28;20421;-80
2022/03/18 10:45:35;;;;;;;20.17;11.50;;;;;;;;;;5022952;28;20421;-80
2022/03/18 10:48:10;;;;;;;18.83;10.77;;;;;;;;;;5021096;28;20428;-80
2022/03/18 10:50:38;;;;;;;16.98;11.40;;;;;;;;;;5021559;28;20420;-80
2022/03/18 10:53:10;;;;;;;20.02;12.40;;;;;;;;;;5020210;28;20425;-80
2022/03/18 10:55:37;;;;;;;20.10;11.87;;;;;;;;;;5020978;28;20427;-80
2022/03/18 10:58:06;;;;;;;18.27;11.65;;;;;;;;;;5018588;28;20423;-79
2022/03/18 11:00:33;;;;;;;19.42;10.98;;;;;;;;;;5019136;28;20487;-80
2022/03/18 11:03:01;;;;;;;19.35;11.15;;;;;;;;;;5021524;28;20427;-81
2022/03/18 11:05:27;;;;;;;21.35;10.10;;;;;;;;;;5021057;28;20427;-81
2022/03/18 11:07:54;;;;;;;18.85;9.35;;;;;;;;;;5020140;28;20493;-81
2022/03/18 11:13:06;;;;;;;19.33;9.07;;;;;;;;;;5019826;28;20999;-80
2022/03/18 11:15:34;;;;;;;16.42;10.90;;;;;;;;;;5018107;28;20454;-80
2022/03/18 11:18:03;;;;;;;16.52;9.70;;;;;;;;;;5020645;28;20424;-78
2022/03/18 11:20:30;;;;;;;14.10;10.60;;;;;;;;;;5022292;28;20946;-81
2022/03/18 11:22:57;;;;;;;24.05;11.75;;;;;;;;;;5019098;28;20488;-80
2022/03/18 11:25:24;;;;;;;18.60;11.45;;;;;;;;;;5020272;28;20430;-81
2022/03/18 11:27:51;;;;;;;21.40;11.80;;;;;;;;;;5023052;28;20449;-79
2022/03/18 11:30:19;;;;;;;20.27;12.37;;;;;;;;;;5017659;28;20440;-79
2022/03/18 11:33:11;;;;;;;16.58;10.73;;;;;;;;;;5017547;28;20431;-79
2022/03/18 11:35:52;;;;;;;23.40;11.88;;;;;;;;;;5020765;28;20489;-78
2022/03/18 11:38:19;;;;;;;19.27;11.73;;;;;;;;;;5018100;28;20935;-79
2022/03/18 11:40:51;;;;;;;17.20;11.60;;;;;;;;;;5019185;28;20420;-78
2022/03/18 11:43:30;;;;;;;18.80;12.55;;;;;;;;;;5016951;28;20430;-79
2022/03/18 11:46:20;;;;;;;19.08;11.60;;;;;;;;;;5019804;28;20441;-79
2022/03/18 11:48:49;;;;;;;19.88;12.40;;;;;;;;;;5020105;28;20423;-79
2022/03/18 11:51:25;;;;;;;17.10;11.55;;;;;;;;;;5019404;28;20438;-79
2022/03/18 11:53:53;;;;;;;20.65;11.55;;;;;;;;;;5026959;28;20438;-79
2022/03/18 11:56:20;;;;;;;21.17;11.50;;;;;;;;;;5024002;28;20474;-79
2022/03/18 11:58:47;;;;;;;21.43;11.57;;;;;;;;;;5020020;28;20526;-79
2022/03/18 12:01:32;;;;;;;19.15;10.70;;;;;;;;;;5022795;28;20411;-79
2022/03/18 12:03:59;;;;;;;16.30;10.70;;;;;;;;;;5022701;28;20441;-77
2022/03/18 12:06:25;;;;;;;20.70;12.00;;;;;;;;;;5021793;28;20496;-79
2022/03/18 12:08:59;;;;;;;17.60;10.85;;;;;;;;;;5021426;28;20427;-79
2022/03/18 12:11:33;;;;;;;17.40;12.25;;;;;;;;;;5021941;28;20487;-78
2022/03/18 12:14:00;;;;;;;18.52;11.13;;;;;;;;;;5023374;28;20531;-76
2022/03/18 12:16:26;;;;;;;19.10;11.60;;;;;;;;;;5020938;28;20799;-79
2022/03/18 12:18:57;;;;;;;21.13;12.23;;;;;;;;;;5021370;28;20423;-79
2022/03/18 12:21:39;;;;;;;22.40;12.77;;;;;;;;;;5023031;28;20419;-79
2022/03/18 12:24:06;;;;;;;24.88;12.02;;;;;;;;;;5023736;28;20508;-79
2022/03/18 12:26:33;;;;;;;17.95;11.35;;;;;;;;;;5022771;28;20419;-79
2022/03/18 12:29:00;;;;;;;19.88;11.80;;;;;;;;;;5020853;28;20499;-78
2022/03/18 12:31:26;;;;;;;17.73;11.80;;;;;;;;;;5020464;28;20453;-79
2022/03/18 12:33:56;;;;;;;18.67;11.73;;;;;;;;;;5024615;28;20423;-79
2022/03/18 12:36:24;;;;;;;18.05;10.48;;;;;;;;;;5021715;28;20420;-78
2022/03/18 12:39:04;;;;;;;17.85;10.38;;;;;;;;;;5019407;28;20977;-79
2022/03/18 12:41:30;;;;;;;14.23;10.55;;;;;;;;;;5021394;28;20454;-79
2022/03/18 12:43:56;;;;;;;15.30;8.40;;;;;;;;;;5023233;28;20465;-78
2022/03/18 12:46:23;;;;;;;13.80;7.68;;;;;;;;;;5022399;28;20908;-78
2022/03/18 12:48:49;;;;;;;11.77;7.28;;;;;;;;;;5021283;28;20442;-79
2022/03/18 12:51:16;;;;;;;14.88;6.50;;;;;;;;;;5024810;28;20440;-79
2022/03/18 12:53:46;;;;;;;11.03;6.37;;;;;;;;;;5023450;28;20440;-77
2022/03/18 12:56:18;;;;;;;9.40;4.90;;;;;;;;;;5025609;28;20430;-78
2022/03/18 12:58:45;;;;;;;10.18;6.20;;;;;;;;;;5022317;28;20900;-78
2022/03/18 13:01:12;;;;;;;13.27;7.35;;;;;;;;;;5022706;28;20437;-79
2022/03/18 13:03:46;;;;;;;13.07;8.10;;;;;;;;;;5021126;28;20914;-79
2022/03/18 13:06:18;;;;;;;12.20;6.70;;;;;;;;;;5021283;28;20431;-79
2022/03/18 13:08:46;;;;;;;12.35;7.32;;;;;;;;;;5020909;28;20440;-79
2022/03/18 13:11:12;;;;;;;11.90;6.78;;;;;;;;;;5022614;28;20937;-79
2022/03/18 13:13:46;;;;;;;9.85;5.47;;;;;;;;;;5023359;28;20450;-77
2022/03/18 13:16:13;;;;;;;16.95;7.55;;;;;;;;;;5020320;28;20435;-79
2022/03/18 13:18:40;;;;;;;9.80;6.30;;;;;;;;;;5024374;28;20434;-79
2022/03/18 13:21:07;;;;;;;14.73;7.72;;;;;;;;;;5021646;28;20440;-79
2022/03/18 13:23:36;;;;;;;19.40;9.05;;;;;;;;;;5024117;28;20439;-78
2022/03/18 13:26:02;;;;;;;20.33;9.47;;;;;;;;;;5022251;28;20431;-79
2022/03/18 13:28:29;;;;;;;10.20;5.03;;;;;;;;;;5023377;28;20447;-79
2022/03/18 13:33:44;;;;;;;11.90;7.90;;;;;;;;;;4992406;28;20848;-79
2022/03/18 13:36:23;;;;;;;13.48;7.03;;;;;;;;;;5016696;28;20439;-79
2022/03/18 13:38:50;;;;;;;12.68;7.22;;;;;;;;;;5023595;28;20424;-79
2022/03/18 13:41:17;;;;;;;15.85;7.45;;;;;;;;;;5023225;28;20424;-79
2022/03/18 13:43:46;;;;;;;15.90;7.63;;;;;;;;;;5025644;28;20543;-79
2022/03/18 13:46:15;;;;;;;12.40;7.10;;;;;;;;;;5024581;28;20462;-79
2022/03/18 13:48:42;;;;;;;13.82;6.50;;;;;;;;;;5023423;28;20431;-79
2022/03/18 13:51:09;;;;;;;13.05;7.28;;;;;;;;;;5019858;28;20906;-79
2022/03/18 13:53:36;;;;;;;13.98;7.28;;;;;;;;;;5020244;28;20447;-79
2022/03/18 13:56:13;;;;;;;12.35;7.65;;;;;;;;;;5024169;28;20506;-79
2022/03/18 13:58:40;;;;;;;13.60;8.30;;;;;;;;;;5022470;28;20486;-80
2022/03/18 14:01:08;;;;;;;13.40;8.20;;;;;;;;;;5024099;28;20424;-79
2022/03/18 14:03:36;;;;;;;17.02;8.82;;;;;;;;;;5024423;28;20418;-80
2022/03/18 14:06:03;;;;;;;16.85;9.18;;;;;;;;;;5020860;28;20443;-80
2022/03/18 14:08:30;;;;;;;15.05;9.50;;;;;;;;;;5022947;28;20435;-79
2022/03/18 14:10:59;;;;;;;13.30;8.10;;;;;;;;;;5022786;28;20447;-79
2022/03/18 14:13:26;;;;;;;14.10;7.53;;;;;;;;;;5023050;28;20426;-82
2022/03/18 14:15:53;;;;;;;17.63;8.43;;;;;;;;;;5024579;28;20418;-82
2022/03/18 14:18:21;;;;;;;15.63;7.90;;;;;;;;;;5026237;28;20435;-82
2022/03/18 14:20:59;;;;;;;15.20;8.15;;;;;;;;;;5024932;28;20472;-82
2022/03/18 14:23:28;;;;;;;14.23;8.00;;;;;;;;;;5024364;28;20428;-82
2022/03/18 14:25:55;;;;;;;15.52;8.43;;;;;;;;;;5024056;28;20426;-81
2022/03/18 14:28:23;;;;;;;12.93;7.30;;;;;;;;;;5026595;28;20434;-82
2022/03/18 14:30:49;;;;;;;14.48;7.30;;;;;;;;;;5024221;28;20419;-81
2022/03/18 14:33:15;;;;;;;15.40;7.30;;;;;;;;;;5024203;28;20438;-83
2022/03/18 14:35:42;;;;;;;14.40;7.68;;;;;;;;;;5025859;28;20413;-80
2022/03/18 14:38:10;;;;;;;15.40;7.60;;;;;;;;;;5022407;28;20421;-82
2022/03/18 14:40:36;;;;;;;15.88;7.47;;;;;;;;;;5020972;28;20469;-82
2022/03/18 14:43:03;;;;;;;12.32;6.00;;;;;;;;;;5022657;28;20465;-81
2022/03/18 14:45:29;;;;;;;13.18;6.65;;;;;;;;;;5020441;28;20424;-81
2022/03/18 14:47:56;;;;;;;16.27;6.80;;;;;;;;;;5021732;28;20992;-81
2022/03/18 14:50:22;;;;;;;13.05;6.60;;;;;;;;;;5021625;28;20439;-81